Current | Forecast
Updated: 11:00 AM JST on December 11, 2017
Observed at Tokyo Heliport, Japan
Temperature 54°F
Humidity 51%
Dew Point 36°F
Wind Variable at 4 mph
Pressure 29.62 in (Falling)
Conditions Partly Cloudy
Visibility 6.2 miles
UV 3 out of 16
Clouds (FEW) : 3000 ft
Yesterday's Maximum 57°F
Yesterday's Minimum 41°F approx.
Yesterday's Heating Degree Days 16 approx.
Sunrise6:39 AM JST
Sunset4:27 PM JST
Moon Rise
Moon Set12:31 PM JST
Moon PhaseMoon Phase
Last Quarter
Raw METARMETAR RJTI 110200Z VRB03KT 9999 FEW030 12/02 Q1003


Monday
. High: 73° F.
Tuesday
. High: 73° F.
Wednesday
. High: 64° F.
Thursday
. High: 69° F.
Friday
. High: 71° F.
Saturday
. High: 71° F.
Sunday
. High: 71° F.
Monday
. High: 71° F.

Units: English | Metric

Find the Weather for any City, State or Zipcode, or Country:

U.S. State List | Severe Weather | Tropical Storms | Ski Conditions
United States | Canada | Central America | South America | Asia | Europe | Australia | Africa | Islands

Weather Underground

© Copyright 2017
The Weather Company, LLC